sensor_id;sensor_type;location;lat;lon;timestamp;P1;durP1;ratioP1;P2;durP2;ratioP2
41943;SDS011;27636;52.610;13.244;2023-02-28T00:03:28;7.85;;;3.25;;
41943;SDS011;27636;52.610;13.244;2023-02-28T00:08:31;8.60;;;3.72;;
41943;SDS011;27636;52.610;13.244;2023-02-28T00:13:37;5.38;;;3.25;;
41943;SDS011;27636;52.610;13.244;2023-02-28T00:18:42;6.65;;;2.97;;
41943;SDS011;27636;52.610;13.244;2023-02-28T00:23:46;6.25;;;3.10;;
41943;SDS011;27636;52.610;13.244;2023-02-28T00:28:52;6.35;;;3.22;;
41943;SDS011;27636;52.610;13.244;2023-02-28T00:33:56;5.80;;;3.20;;
41943;SDS011;27636;52.610;13.244;2023-02-28T00:38:59;11.00;;;4.20;;
41943;SDS011;27636;52.610;13.244;2023-02-28T00:44:04;5.87;;;3.80;;
41943;SDS011;27636;52.610;13.244;2023-02-28T00:49:08;9.63;;;5.15;;
41943;SDS011;27636;52.610;13.244;2023-02-28T00:54:11;12.00;;;4.70;;
41943;SDS011;27636;52.610;13.244;2023-02-28T00:59:17;8.23;;;4.20;;
41943;SDS011;27636;52.610;13.244;2023-02-28T01:04:20;4.22;;;2.63;;
41943;SDS011;27636;52.610;13.244;2023-02-28T01:09:25;11.20;;;3.65;;
41943;SDS011;27636;52.610;13.244;2023-02-28T01:14:30;4.70;;;2.63;;
41943;SDS011;27636;52.610;13.244;2023-02-28T01:19:33;7.43;;;2.88;;
41943;SDS011;27636;52.610;13.244;2023-02-28T01:24:38;3.25;;;2.00;;
41943;SDS011;27636;52.610;13.244;2023-02-28T01:29:43;4.07;;;2.60;;
41943;SDS011;27636;52.610;13.244;2023-02-28T01:34:46;9.73;;;3.28;;
41943;SDS011;27636;52.610;13.244;2023-02-28T01:39:49;3.88;;;2.78;;
41943;SDS011;27636;52.610;13.244;2023-02-28T01:50:24;4.10;;;2.08;;
41943;SDS011;27636;52.610;13.244;2023-02-28T01:55:31;3.67;;;2.42;;
41943;SDS011;27636;52.610;13.244;2023-02-28T02:00:37;6.15;;;3.00;;
41943;SDS011;27636;52.610;13.244;2023-02-28T02:05:41;3.20;;;2.00;;
41943;SDS011;27636;52.610;13.244;2023-02-28T02:10:50;6.13;;;2.10;;
41943;SDS011;27636;52.610;13.244;2023-02-28T02:16:02;5.70;;;1.70;;
41943;SDS011;27636;52.610;13.244;2023-02-28T02:27:08;4.53;;;2.65;;
41943;SDS011;27636;52.610;13.244;2023-02-28T02:32:33;3.55;;;1.80;;
41943;SDS011;27636;52.610;13.244;2023-02-28T02:38:01;5.25;;;2.90;;
41943;SDS011;27636;52.610;13.244;2023-02-28T02:43:13;9.05;;;2.65;;
41943;SDS011;27636;52.610;13.244;2023-02-28T02:48:24;1.67;;;1.38;;
41943;SDS011;27636;52.610;13.244;2023-02-28T02:53:34;2.92;;;2.22;;
41943;SDS011;27636;52.610;13.244;2023-02-28T02:58:42;1.52;;;1.02;;
41943;SDS011;27636;52.610;13.244;2023-02-28T03:08:52;1.92;;;1.63;;
41943;SDS011;27636;52.610;13.244;2023-02-28T03:14:01;4.13;;;1.65;;
41943;SDS011;27636;52.610;13.244;2023-02-28T03:19:21;4.80;;;1.75;;
41943;SDS011;27636;52.610;13.244;2023-02-28T03:24:38;3.13;;;1.83;;
41943;SDS011;27636;52.610;13.244;2023-02-28T03:29:48;2.85;;;1.67;;
41943;SDS011;27636;52.610;13.244;2023-02-28T03:34:57;2.78;;;1.35;;
41943;SDS011;27636;52.610;13.244;2023-02-28T03:40:06;2.85;;;1.65;;
41943;SDS011;27636;52.610;13.244;2023-02-28T03:45:15;4.13;;;2.28;;
41943;SDS011;27636;52.610;13.244;2023-02-28T03:50:23;3.85;;;1.75;;
41943;SDS011;27636;52.610;13.244;2023-02-28T03:55:32;3.72;;;2.15;;
41943;SDS011;27636;52.610;13.244;2023-02-28T04:00:40;1.73;;;1.25;;
41943;SDS011;27636;52.610;13.244;2023-02-28T04:05:49;3.47;;;2.17;;
41943;SDS011;27636;52.610;13.244;2023-02-28T04:10:57;4.65;;;1.95;;
41943;SDS011;27636;52.610;13.244;2023-02-28T04:16:07;7.90;;;2.40;;
41943;SDS011;27636;52.610;13.244;2023-02-28T04:21:23;2.45;;;1.50;;
41943;SDS011;27636;52.610;13.244;2023-02-28T04:26:31;4.20;;;2.17;;
41943;SDS011;27636;52.610;13.244;2023-02-28T04:31:34;4.15;;;1.52;;
41943;SDS011;27636;52.610;13.244;2023-02-28T04:36:38;2.20;;;1.58;;
41943;SDS011;27636;52.610;13.244;2023-02-28T04:41:44;3.88;;;1.88;;
41943;SDS011;27636;52.610;13.244;2023-02-28T04:46:48;2.40;;;1.60;;
41943;SDS011;27636;52.610;13.244;2023-02-28T04:51:52;2.35;;;1.48;;
41943;SDS011;27636;52.610;13.244;2023-02-28T04:56:57;2.42;;;1.50;;
41943;SDS011;27636;52.610;13.244;2023-02-28T05:02:01;2.25;;;1.33;;
41943;SDS011;27636;52.610;13.244;2023-02-28T05:07:09;2.83;;;1.88;;
41943;SDS011;27636;52.610;13.244;2023-02-28T05:12:14;3.25;;;2.10;;
41943;SDS011;27636;52.610;13.244;2023-02-28T05:17:18;1.85;;;1.67;;
41943;SDS011;27636;52.610;13.244;2023-02-28T05:22:22;2.78;;;1.95;;
41943;SDS011;27636;52.610;13.244;2023-02-28T05:27:26;5.35;;;2.90;;
41943;SDS011;27636;52.610;13.244;2023-02-28T05:32:31;3.40;;;1.70;;
41943;SDS011;27636;52.610;13.244;2023-02-28T05:37:36;3.80;;;2.35;;
41943;SDS011;27636;52.610;13.244;2023-02-28T05:42:41;2.23;;;1.67;;
41943;SDS011;27636;52.610;13.244;2023-02-28T05:47:45;3.17;;;2.15;;
41943;SDS011;27636;52.610;13.244;2023-02-28T05:52:49;1.67;;;0.93;;
41943;SDS011;27636;52.610;13.244;2023-02-28T05:57:54;4.00;;;2.33;;
41943;SDS011;27636;52.610;13.244;2023-02-28T06:08:04;1.20;;;0.88;;
41943;SDS011;27636;52.610;13.244;2023-02-28T06:13:12;1.73;;;1.00;;
41943;SDS011;27636;52.610;13.244;2023-02-28T06:18:15;5.25;;;2.42;;
41943;SDS011;27636;52.610;13.244;2023-02-28T06:23:19;5.90;;;2.60;;
41943;SDS011;27636;52.610;13.244;2023-02-28T06:28:25;10.00;;;1.90;;
41943;SDS011;27636;52.610;13.244;2023-02-28T06:33:28;5.63;;;2.83;;
41943;SDS011;27636;52.610;13.244;2023-02-28T06:38:32;3.63;;;1.70;;
41943;SDS011;27636;52.610;13.244;2023-02-28T06:43:39;3.20;;;1.53;;
41943;SDS011;27636;52.610;13.244;2023-02-28T06:48:43;6.35;;;2.70;;
41943;SDS011;27636;52.610;13.244;2023-02-28T06:53:47;4.33;;;2.50;;
41943;SDS011;27636;52.610;13.244;2023-02-28T06:58:52;3.53;;;2.08;;
41943;SDS011;27636;52.610;13.244;2023-02-28T07:03:55;8.00;;;3.58;;
41943;SDS011;27636;52.610;13.244;2023-02-28T07:09:02;2.90;;;1.92;;
41943;SDS011;27636;52.610;13.244;2023-02-28T07:14:11;5.35;;;2.35;;
41943;SDS011;27636;52.610;13.244;2023-02-28T07:19:15;5.78;;;2.63;;
41943;SDS011;27636;52.610;13.244;2023-02-28T07:24:19;5.90;;;3.67;;
41943;SDS011;27636;52.610;13.244;2023-02-28T07:29:24;10.45;;;3.85;;
41943;SDS011;27636;52.610;13.244;2023-02-28T07:34:28;11.57;;;2.97;;
41943;SDS011;27636;52.610;13.244;2023-02-28T07:39:32;10.90;;;4.80;;
41943;SDS011;27636;52.610;13.244;2023-02-28T07:44:37;14.10;;;3.97;;
41943;SDS011;27636;52.610;13.244;2023-02-28T07:49:44;10.63;;;4.05;;
41943;SDS011;27636;52.610;13.244;2023-02-28T07:54:49;10.25;;;5.18;;
41943;SDS011;27636;52.610;13.244;2023-02-28T07:59:54;10.95;;;5.05;;
41943;SDS011;27636;52.610;13.244;2023-02-28T08:04:58;13.05;;;4.60;;
41943;SDS011;27636;52.610;13.244;2023-02-28T08:10:03;12.88;;;4.68;;
41943;SDS011;27636;52.610;13.244;2023-02-28T08:15:11;10.88;;;5.70;;
41943;SDS011;27636;52.610;13.244;2023-02-28T08:20:16;12.23;;;5.60;;
41943;SDS011;27636;52.610;13.244;2023-02-28T08:25:20;15.43;;;5.85;;
41943;SDS011;27636;52.610;13.244;2023-02-28T08:30:25;10.80;;;4.07;;
41943;SDS011;27636;52.610;13.244;2023-02-28T08:40:34;10.20;;;3.55;;
41943;SDS011;27636;52.610;13.244;2023-02-28T08:45:39;5.50;;;2.00;;
41943;SDS011;27636;52.610;13.244;2023-02-28T08:50:43;6.15;;;2.30;;
41943;SDS011;27636;52.610;13.244;2023-02-28T08:55:58;3.85;;;1.65;;
41943;SDS011;27636;52.610;13.244;2023-02-28T09:01:08;3.88;;;1.80;;
41943;SDS011;27636;52.610;13.244;2023-02-28T09:06:14;3.10;;;1.55;;
41943;SDS011;27636;52.610;13.244;2023-02-28T09:11:19;3.85;;;1.40;;
41943;SDS011;27636;52.610;13.244;2023-02-28T09:16:24;4.88;;;1.75;;
41943;SDS011;27636;52.610;13.244;2023-02-28T09:21:27;3.90;;;1.58;;
41943;SDS011;27636;52.610;13.244;2023-02-28T09:26:31;7.30;;;2.28;;
41943;SDS011;27636;52.610;13.244;2023-02-28T09:31:46;4.05;;;1.35;;
41943;SDS011;27636;52.610;13.244;2023-02-28T09:36:50;4.00;;;1.52;;
41943;SDS011;27636;52.610;13.244;2023-02-28T09:41:57;3.42;;;1.67;;
41943;SDS011;27636;52.610;13.244;2023-02-28T09:47:05;2.55;;;1.40;;
41943;SDS011;27636;52.610;13.244;2023-02-28T09:52:15;3.35;;;1.30;;
41943;SDS011;27636;52.610;13.244;2023-02-28T09:57:26;5.45;;;1.48;;
41943;SDS011;27636;52.610;13.244;2023-02-28T10:02:41;4.13;;;1.42;;
41943;SDS011;27636;52.610;13.244;2023-02-28T10:07:57;2.42;;;1.17;;
41943;SDS011;27636;52.610;13.244;2023-02-28T10:13:12;4.30;;;1.67;;
41943;SDS011;27636;52.610;13.244;2023-02-28T10:18:23;3.53;;;1.63;;
41943;SDS011;27636;52.610;13.244;2023-02-28T10:23:32;3.63;;;1.20;;
41943;SDS011;27636;52.610;13.244;2023-02-28T10:28:38;2.58;;;1.20;;
41943;SDS011;27636;52.610;13.244;2023-02-28T10:33:43;4.80;;;1.52;;
41943;SDS011;27636;52.610;13.244;2023-02-28T10:38:48;5.40;;;1.58;;
41943;SDS011;27636;52.610;13.244;2023-02-28T10:43:53;6.90;;;1.85;;
41943;SDS011;27636;52.610;13.244;2023-02-28T10:49:20;4.40;;;1.63;;
41943;SDS011;27636;52.610;13.244;2023-02-28T10:54:27;3.53;;;1.40;;
41943;SDS011;27636;52.610;13.244;2023-02-28T10:59:33;1.58;;;0.93;;
41943;SDS011;27636;52.610;13.244;2023-02-28T11:04:38;2.38;;;1.00;;
41943;SDS011;27636;52.610;13.244;2023-02-28T11:09:44;3.90;;;1.50;;
41943;SDS011;27636;52.610;13.244;2023-02-28T11:14:53;2.65;;;1.20;;
41943;SDS011;27636;52.610;13.244;2023-02-28T11:20:02;4.32;;;1.60;;
41943;SDS011;27636;52.610;13.244;2023-02-28T11:25:16;2.83;;;1.10;;
41943;SDS011;27636;52.610;13.244;2023-02-28T11:30:25;4.30;;;1.50;;
41943;SDS011;27636;52.610;13.244;2023-02-28T11:35:38;4.47;;;1.92;;
41943;SDS011;27636;52.610;13.244;2023-02-28T11:40:43;4.10;;;1.52;;
41943;SDS011;27636;52.610;13.244;2023-02-28T11:45:56;2.78;;;1.25;;
41943;SDS011;27636;52.610;13.244;2023-02-28T11:51:14;6.85;;;2.53;;
41943;SDS011;27636;52.610;13.244;2023-02-28T11:56:25;7.85;;;1.85;;
41943;SDS011;27636;52.610;13.244;2023-02-28T12:01:42;5.15;;;1.52;;
41943;SDS011;27636;52.610;13.244;2023-02-28T12:07:00;2.38;;;1.17;;
41943;SDS011;27636;52.610;13.244;2023-02-28T12:12:15;3.47;;;1.85;;
41943;SDS011;27636;52.610;13.244;2023-02-28T12:22:39;4.40;;;1.50;;
41943;SDS011;27636;52.610;13.244;2023-02-28T12:27:48;5.28;;;1.60;;
41943;SDS011;27636;52.610;13.244;2023-02-28T12:32:57;7.32;;;1.58;;
41943;SDS011;27636;52.610;13.244;2023-02-28T12:38:12;2.22;;;1.20;;
41943;SDS011;27636;52.610;13.244;2023-02-28T12:43:24;3.40;;;1.50;;
41943;SDS011;27636;52.610;13.244;2023-02-28T12:48:37;5.53;;;1.35;;
41943;SDS011;27636;52.610;13.244;2023-02-28T12:53:51;4.88;;;1.67;;
41943;SDS011;27636;52.610;13.244;2023-02-28T12:59:05;2.55;;;1.30;;
41943;SDS011;27636;52.610;13.244;2023-02-28T13:10:05;5.32;;;2.00;;
41943;SDS011;27636;52.610;13.244;2023-02-28T13:15:16;7.45;;;1.95;;
41943;SDS011;27636;52.610;13.244;2023-02-28T13:20:25;3.80;;;1.60;;
41943;SDS011;27636;52.610;13.244;2023-02-28T13:31:03;5.10;;;1.98;;
41943;SDS011;27636;52.610;13.244;2023-02-28T13:36:22;5.18;;;1.65;;
41943;SDS011;27636;52.610;13.244;2023-02-28T13:41:47;4.38;;;2.05;;
41943;SDS011;27636;52.610;13.244;2023-02-28T13:52:24;5.22;;;1.30;;
41943;SDS011;27636;52.610;13.244;2023-02-28T13:57:33;4.68;;;1.83;;
41943;SDS011;27636;52.610;13.244;2023-02-28T14:02:59;3.90;;;1.70;;
41943;SDS011;27636;52.610;13.244;2023-02-28T14:08:15;6.43;;;2.15;;
41943;SDS011;27636;52.610;13.244;2023-02-28T14:13:38;4.43;;;1.48;;
41943;SDS011;27636;52.610;13.244;2023-02-28T14:24:10;5.10;;;1.83;;
41943;SDS011;27636;52.610;13.244;2023-02-28T14:29:35;9.38;;;2.10;;
41943;SDS011;27636;52.610;13.244;2023-02-28T14:35:05;7.38;;;1.95;;
41943;SDS011;27636;52.610;13.244;2023-02-28T14:40:25;3.47;;;1.65;;
41943;SDS011;27636;52.610;13.244;2023-02-28T14:45:34;5.18;;;1.48;;
41943;SDS011;27636;52.610;13.244;2023-02-28T14:50:40;5.82;;;1.63;;
41943;SDS011;27636;52.610;13.244;2023-02-28T14:55:53;2.83;;;1.20;;
41943;SDS011;27636;52.610;13.244;2023-02-28T15:00:59;4.85;;;1.63;;
41943;SDS011;27636;52.610;13.244;2023-02-28T15:06:05;3.95;;;1.48;;
41943;SDS011;27636;52.610;13.244;2023-02-28T15:11:16;5.28;;;1.75;;
41943;SDS011;27636;52.610;13.244;2023-02-28T15:16:28;6.82;;;1.98;;
41943;SDS011;27636;52.610;13.244;2023-02-28T15:21:36;4.47;;;1.40;;
41943;SDS011;27636;52.610;13.244;2023-02-28T15:26:45;4.35;;;1.85;;
41943;SDS011;27636;52.610;13.244;2023-02-28T15:31:56;3.70;;;1.60;;
41943;SDS011;27636;52.610;13.244;2023-02-28T15:37:06;4.18;;;1.98;;
41943;SDS011;27636;52.610;13.244;2023-02-28T15:42:27;5.72;;;1.90;;
41943;SDS011;27636;52.610;13.244;2023-02-28T15:47:33;7.97;;;2.33;;
41943;SDS011;27636;52.610;13.244;2023-02-28T15:52:38;6.35;;;2.47;;
41943;SDS011;27636;52.610;13.244;2023-02-28T15:57:44;5.38;;;2.00;;
41943;SDS011;27636;52.610;13.244;2023-02-28T16:02:51;3.03;;;1.50;;
41943;SDS011;27636;52.610;13.244;2023-02-28T16:07:56;4.13;;;1.67;;
41943;SDS011;27636;52.610;13.244;2023-02-28T16:13:01;4.68;;;1.50;;
41943;SDS011;27636;52.610;13.244;2023-02-28T16:18:08;3.63;;;1.63;;
41943;SDS011;27636;52.610;13.244;2023-02-28T16:23:14;3.55;;;1.35;;
41943;SDS011;27636;52.610;13.244;2023-02-28T16:28:19;5.18;;;1.58;;
41943;SDS011;27636;52.610;13.244;2023-02-28T16:33:27;5.75;;;2.05;;
41943;SDS011;27636;52.610;13.244;2023-02-28T16:38:30;2.97;;;1.35;;
41943;SDS011;27636;52.610;13.244;2023-02-28T16:43:33;4.35;;;1.75;;
41943;SDS011;27636;52.610;13.244;2023-02-28T16:48:39;7.90;;;1.90;;
41943;SDS011;27636;52.610;13.244;2023-02-28T16:53:45;4.90;;;1.98;;
41943;SDS011;27636;52.610;13.244;2023-02-28T16:58:49;5.22;;;1.55;;
41943;SDS011;27636;52.610;13.244;2023-02-28T17:03:55;5.18;;;1.80;;
41943;SDS011;27636;52.610;13.244;2023-02-28T17:08:59;3.25;;;1.58;;
41943;SDS011;27636;52.610;13.244;2023-02-28T17:14:03;5.47;;;1.85;;
41943;SDS011;27636;52.610;13.244;2023-02-28T17:19:11;4.30;;;2.22;;
41943;SDS011;27636;52.610;13.244;2023-02-28T17:24:17;4.57;;;1.88;;
41943;SDS011;27636;52.610;13.244;2023-02-28T17:29:32;4.43;;;1.70;;
41943;SDS011;27636;52.610;13.244;2023-02-28T17:34:37;2.88;;;1.50;;
41943;SDS011;27636;52.610;13.244;2023-02-28T17:39:41;5.55;;;2.13;;
41943;SDS011;27636;52.610;13.244;2023-02-28T17:44:45;3.03;;;1.52;;
41943;SDS011;27636;52.610;13.244;2023-02-28T17:49:50;7.25;;;3.53;;
41943;SDS011;27636;52.610;13.244;2023-02-28T17:54:54;5.43;;;2.38;;
41943;SDS011;27636;52.610;13.244;2023-02-28T17:59:57;2.42;;;1.45;;
41943;SDS011;27636;52.610;13.244;2023-02-28T18:05:04;4.82;;;2.17;;
41943;SDS011;27636;52.610;13.244;2023-02-28T18:10:11;2.45;;;1.40;;
41943;SDS011;27636;52.610;13.244;2023-02-28T18:15:22;6.00;;;2.22;;
41943;SDS011;27636;52.610;13.244;2023-02-28T18:20:28;6.75;;;3.65;;
41943;SDS011;27636;52.610;13.244;2023-02-28T18:25:32;10.88;;;4.28;;
41943;SDS011;27636;52.610;13.244;2023-02-28T18:30:36;8.95;;;4.53;;
41943;SDS011;27636;52.610;13.244;2023-02-28T18:35:41;5.37;;;2.80;;
41943;SDS011;27636;52.610;13.244;2023-02-28T18:40:50;8.40;;;3.33;;
41943;SDS011;27636;52.610;13.244;2023-02-28T18:45:55;3.78;;;2.20;;
41943;SDS011;27636;52.610;13.244;2023-02-28T18:51:05;8.48;;;2.78;;
41943;SDS011;27636;52.610;13.244;2023-02-28T18:56:11;7.05;;;3.13;;
41943;SDS011;27636;52.610;13.244;2023-02-28T19:01:17;14.27;;;2.90;;
41943;SDS011;27636;52.610;13.244;2023-02-28T19:06:24;5.95;;;2.85;;
41943;SDS011;27636;52.610;13.244;2023-02-28T19:11:29;6.05;;;2.40;;
41943;SDS011;27636;52.610;13.244;2023-02-28T19:16:33;3.87;;;2.30;;
41943;SDS011;27636;52.610;13.244;2023-02-28T19:21:38;9.15;;;3.60;;
41943;SDS011;27636;52.610;13.244;2023-02-28T19:26:42;3.80;;;2.60;;
41943;SDS011;27636;52.610;13.244;2023-02-28T19:31:46;3.60;;;2.45;;
41943;SDS011;27636;52.610;13.244;2023-02-28T19:36:51;9.45;;;5.00;;
41943;SDS011;27636;52.610;13.244;2023-02-28T19:41:56;8.75;;;3.58;;
41943;SDS011;27636;52.610;13.244;2023-02-28T19:46:59;5.57;;;2.70;;
41943;SDS011;27636;52.610;13.244;2023-02-28T19:52:05;3.65;;;2.08;;
41943;SDS011;27636;52.610;13.244;2023-02-28T19:57:15;8.85;;;3.05;;
41943;SDS011;27636;52.610;13.244;2023-02-28T20:02:20;6.47;;;2.67;;
41943;SDS011;27636;52.610;13.244;2023-02-28T20:07:27;10.85;;;3.70;;
41943;SDS011;27636;52.610;13.244;2023-02-28T20:17:34;6.87;;;3.00;;
41943;SDS011;27636;52.610;13.244;2023-02-28T20:22:39;15.25;;;3.33;;
41943;SDS011;27636;52.610;13.244;2023-02-28T20:32:47;8.93;;;3.28;;
41943;SDS011;27636;52.610;13.244;2023-02-28T20:37:52;7.28;;;3.00;;
41943;SDS011;27636;52.610;13.244;2023-02-28T20:42:56;7.95;;;3.35;;
41943;SDS011;27636;52.610;13.244;2023-02-28T20:48:00;17.93;;;7.87;;
41943;SDS011;27636;52.610;13.244;2023-02-28T20:53:05;20.42;;;8.63;;
41943;SDS011;27636;52.610;13.244;2023-02-28T20:58:09;18.08;;;7.30;;
41943;SDS011;27636;52.610;13.244;2023-02-28T21:03:13;6.63;;;3.00;;
41943;SDS011;27636;52.610;13.244;2023-02-28T21:08:18;10.30;;;5.10;;
41943;SDS011;27636;52.610;13.244;2023-02-28T21:13:22;8.43;;;4.30;;
41943;SDS011;27636;52.610;13.244;2023-02-28T21:18:28;17.52;;;6.32;;
41943;SDS011;27636;52.610;13.244;2023-02-28T21:23:34;11.10;;;4.18;;
41943;SDS011;27636;52.610;13.244;2023-02-28T21:28:37;8.27;;;3.42;;
41943;SDS011;27636;52.610;13.244;2023-02-28T21:33:46;23.42;;;4.15;;
41943;SDS011;27636;52.610;13.244;2023-02-28T21:38:55;8.73;;;5.03;;
41943;SDS011;27636;52.610;13.244;2023-02-28T21:44:00;15.75;;;4.50;;
41943;SDS011;27636;52.610;13.244;2023-02-28T21:49:04;5.38;;;3.03;;
41943;SDS011;27636;52.610;13.244;2023-02-28T21:54:09;14.88;;;4.07;;
41943;SDS011;27636;52.610;13.244;2023-02-28T21:59:13;7.00;;;2.95;;
41943;SDS011;27636;52.610;13.244;2023-02-28T22:04:17;4.97;;;2.77;;
41943;SDS011;27636;52.610;13.244;2023-02-28T22:09:26;7.50;;;3.08;;
41943;SDS011;27636;52.610;13.244;2023-02-28T22:14:30;7.68;;;4.60;;
41943;SDS011;27636;52.610;13.244;2023-02-28T22:19:34;15.03;;;2.90;;
41943;SDS011;27636;52.610;13.244;2023-02-28T22:24:40;9.48;;;5.55;;
41943;SDS011;27636;52.610;13.244;2023-02-28T22:29:44;6.18;;;2.72;;
41943;SDS011;27636;52.610;13.244;2023-02-28T22:34:49;7.45;;;3.50;;
41943;SDS011;27636;52.610;13.244;2023-02-28T22:39:54;6.22;;;4.35;;
41943;SDS011;27636;52.610;13.244;2023-02-28T22:44:58;12.02;;;3.72;;
41943;SDS011;27636;52.610;13.244;2023-02-28T22:50:02;8.35;;;2.58;;
41943;SDS011;27636;52.610;13.244;2023-02-28T22:55:09;3.17;;;1.88;;
41943;SDS011;27636;52.610;13.244;2023-02-28T23:00:13;5.50;;;2.67;;
41943;SDS011;27636;52.610;13.244;2023-02-28T23:05:19;8.93;;;3.47;;
41943;SDS011;27636;52.610;13.244;2023-02-28T23:10:25;6.93;;;2.88;;
41943;SDS011;27636;52.610;13.244;2023-02-28T23:15:30;6.50;;;4.13;;
41943;SDS011;27636;52.610;13.244;2023-02-28T23:20:34;15.30;;;5.30;;
41943;SDS011;27636;52.610;13.244;2023-02-28T23:25:40;8.03;;;4.40;;
41943;SDS011;27636;52.610;13.244;2023-02-28T23:30:44;8.80;;;4.07;;
41943;SDS011;27636;52.610;13.244;2023-02-28T23:35:49;11.50;;;4.68;;
41943;SDS011;27636;52.610;13.244;2023-02-28T23:40:54;5.50;;;3.97;;
41943;SDS011;27636;52.610;13.244;2023-02-28T23:45:58;4.68;;;3.28;;
41943;SDS011;27636;52.610;13.244;2023-02-28T23:51:03;5.82;;;3.20;;
41943;SDS011;27636;52.610;13.244;2023-02-28T23:56:15;7.68;;;3.22;;
